sensor_id;sensor_type;location;lat;lon;timestamp;P1;durP1;ratioP1;P2;durP2;ratioP2
15454;SDS011;21057;51.024;7.540;2022-12-07T00:00:16;41.30;;;37.50;;
15454;SDS011;21057;51.024;7.540;2022-12-07T00:02:44;39.70;;;36.10;;
15454;SDS011;21057;51.024;7.540;2022-12-07T00:05:10;40.90;;;37.40;;
15454;SDS011;21057;51.024;7.540;2022-12-07T00:07:37;38.97;;;35.80;;
15454;SDS011;21057;51.024;7.540;2022-12-07T00:10:05;44.33;;;39.70;;
15454;SDS011;21057;51.024;7.540;2022-12-07T00:12:33;42.23;;;38.47;;
15454;SDS011;21057;51.024;7.540;2022-12-07T00:15:00;44.00;;;40.07;;
15454;SDS011;21057;51.024;7.540;2022-12-07T00:17:27;40.63;;;37.40;;
15454;SDS011;21057;51.024;7.540;2022-12-07T00:19:54;43.70;;;39.43;;
15454;SDS011;21057;51.024;7.540;2022-12-07T00:22:21;44.63;;;40.37;;
15454;SDS011;21057;51.024;7.540;2022-12-07T00:24:47;42.57;;;38.90;;
15454;SDS011;21057;51.024;7.540;2022-12-07T00:27:14;41.93;;;38.20;;
15454;SDS011;21057;51.024;7.540;2022-12-07T00:29:42;41.53;;;37.80;;
15454;SDS011;21057;51.024;7.540;2022-12-07T00:32:09;42.17;;;38.80;;
15454;SDS011;21057;51.024;7.540;2022-12-07T00:34:36;41.63;;;38.03;;
15454;SDS011;21057;51.024;7.540;2022-12-07T00:37:03;41.73;;;37.90;;
15454;SDS011;21057;51.024;7.540;2022-12-07T00:39:29;43.40;;;39.90;;
15454;SDS011;21057;51.024;7.540;2022-12-07T00:41:56;45.53;;;40.53;;
15454;SDS011;21057;51.024;7.540;2022-12-07T00:44:23;43.83;;;39.50;;
15454;SDS011;21057;51.024;7.540;2022-12-07T00:46:51;44.03;;;40.20;;
15454;SDS011;21057;51.024;7.540;2022-12-07T00:49:18;44.33;;;40.67;;
15454;SDS011;21057;51.024;7.540;2022-12-07T00:51:45;44.90;;;41.00;;
15454;SDS011;21057;51.024;7.540;2022-12-07T00:54:14;44.73;;;40.80;;
15454;SDS011;21057;51.024;7.540;2022-12-07T00:56:41;46.60;;;40.93;;
15454;SDS011;21057;51.024;7.540;2022-12-07T00:59:10;45.57;;;41.07;;
15454;SDS011;21057;51.024;7.540;2022-12-07T01:01:39;43.23;;;39.13;;
15454;SDS011;21057;51.024;7.540;2022-12-07T01:04:07;43.13;;;40.03;;
15454;SDS011;21057;51.024;7.540;2022-12-07T01:06:34;43.83;;;39.63;;
15454;SDS011;21057;51.024;7.540;2022-12-07T01:09:02;41.67;;;37.87;;
15454;SDS011;21057;51.024;7.540;2022-12-07T01:11:29;44.77;;;40.93;;
15454;SDS011;21057;51.024;7.540;2022-12-07T01:13:57;40.97;;;38.03;;
15454;SDS011;21057;51.024;7.540;2022-12-07T01:16:25;44.17;;;40.23;;
15454;SDS011;21057;51.024;7.540;2022-12-07T01:18:54;43.10;;;39.17;;
15454;SDS011;21057;51.024;7.540;2022-12-07T01:21:25;43.20;;;39.53;;
15454;SDS011;21057;51.024;7.540;2022-12-07T01:23:53;44.73;;;41.00;;
15454;SDS011;21057;51.024;7.540;2022-12-07T01:26:20;47.20;;;42.00;;
15454;SDS011;21057;51.024;7.540;2022-12-07T01:28:49;43.27;;;39.27;;
15454;SDS011;21057;51.024;7.540;2022-12-07T01:31:17;42.97;;;39.33;;
15454;SDS011;21057;51.024;7.540;2022-12-07T01:33:46;42.80;;;38.83;;
15454;SDS011;21057;51.024;7.540;2022-12-07T01:36:15;42.70;;;38.17;;
15454;SDS011;21057;51.024;7.540;2022-12-07T01:38:45;43.40;;;38.73;;
15454;SDS011;21057;51.024;7.540;2022-12-07T01:41:14;42.30;;;38.40;;
15454;SDS011;21057;51.024;7.540;2022-12-07T01:46:55;41.53;;;38.00;;
15454;SDS011;21057;51.024;7.540;2022-12-07T01:49:24;44.77;;;40.17;;
15454;SDS011;21057;51.024;7.540;2022-12-07T01:51:57;43.00;;;38.97;;
15454;SDS011;21057;51.024;7.540;2022-12-07T01:54:29;44.30;;;40.03;;
15454;SDS011;21057;51.024;7.540;2022-12-07T01:56:56;44.27;;;39.77;;
15454;SDS011;21057;51.024;7.540;2022-12-07T01:59:24;43.47;;;38.67;;
15454;SDS011;21057;51.024;7.540;2022-12-07T02:01:52;47.63;;;39.60;;
15454;SDS011;21057;51.024;7.540;2022-12-07T02:04:21;44.87;;;40.60;;
15454;SDS011;21057;51.024;7.540;2022-12-07T02:06:48;44.63;;;39.90;;
15454;SDS011;21057;51.024;7.540;2022-12-07T02:09:15;42.60;;;38.50;;
15454;SDS011;21057;51.024;7.540;2022-12-07T02:11:44;44.80;;;39.63;;
15454;SDS011;21057;51.024;7.540;2022-12-07T02:14:10;43.27;;;39.50;;
15454;SDS011;21057;51.024;7.540;2022-12-07T02:16:39;40.33;;;36.97;;
15454;SDS011;21057;51.024;7.540;2022-12-07T02:22:42;40.93;;;37.30;;
15454;SDS011;21057;51.024;7.540;2022-12-07T02:25:22;42.33;;;38.07;;
15454;SDS011;21057;51.024;7.540;2022-12-07T02:28:01;40.70;;;36.90;;
15454;SDS011;21057;51.024;7.540;2022-12-07T02:30:34;42.30;;;37.67;;
15454;SDS011;21057;51.024;7.540;2022-12-07T02:33:05;40.97;;;37.07;;
15454;SDS011;21057;51.024;7.540;2022-12-07T02:35:39;43.47;;;39.40;;
15454;SDS011;21057;51.024;7.540;2022-12-07T02:38:10;43.50;;;39.33;;
15454;SDS011;21057;51.024;7.540;2022-12-07T02:40:41;44.00;;;40.00;;
15454;SDS011;21057;51.024;7.540;2022-12-07T02:43:14;45.90;;;41.60;;
15454;SDS011;21057;51.024;7.540;2022-12-07T02:45:47;47.00;;;42.47;;
15454;SDS011;21057;51.024;7.540;2022-12-07T02:48:16;47.13;;;42.83;;
15454;SDS011;21057;51.024;7.540;2022-12-07T02:50:45;44.93;;;41.10;;
15454;SDS011;21057;51.024;7.540;2022-12-07T02:53:30;54.43;;;42.30;;
15454;SDS011;21057;51.024;7.540;2022-12-07T02:55:59;45.37;;;41.37;;
15454;SDS011;21057;51.024;7.540;2022-12-07T02:58:30;44.23;;;39.70;;
15454;SDS011;21057;51.024;7.540;2022-12-07T03:01:08;49.80;;;42.87;;
15454;SDS011;21057;51.024;7.540;2022-12-07T03:03:44;49.43;;;44.53;;
15454;SDS011;21057;51.024;7.540;2022-12-07T03:06:19;46.63;;;42.17;;
15454;SDS011;21057;51.024;7.540;2022-12-07T03:08:51;50.23;;;39.67;;
15454;SDS011;21057;51.024;7.540;2022-12-07T03:11:25;46.73;;;41.07;;
15454;SDS011;21057;51.024;7.540;2022-12-07T03:14:00;44.93;;;40.57;;
15454;SDS011;21057;51.024;7.540;2022-12-07T03:16:37;45.13;;;40.97;;
15454;SDS011;21057;51.024;7.540;2022-12-07T03:19:10;50.47;;;40.33;;
15454;SDS011;21057;51.024;7.540;2022-12-07T03:21:43;43.83;;;39.33;;
15454;SDS011;21057;51.024;7.540;2022-12-07T03:24:14;41.00;;;37.30;;
15454;SDS011;21057;51.024;7.540;2022-12-07T03:26:44;45.13;;;39.70;;
15454;SDS011;21057;51.024;7.540;2022-12-07T03:29:17;46.27;;;41.73;;
15454;SDS011;21057;51.024;7.540;2022-12-07T03:31:51;41.13;;;37.37;;
15454;SDS011;21057;51.024;7.540;2022-12-07T03:34:23;46.20;;;41.53;;
15454;SDS011;21057;51.024;7.540;2022-12-07T03:36:55;47.57;;;42.43;;
15454;SDS011;21057;51.024;7.540;2022-12-07T03:39:27;47.77;;;42.80;;
15454;SDS011;21057;51.024;7.540;2022-12-07T03:41:59;48.17;;;40.87;;
15454;SDS011;21057;51.024;7.540;2022-12-07T03:44:28;47.40;;;42.27;;
15454;SDS011;21057;51.024;7.540;2022-12-07T03:46:58;46.87;;;41.50;;
15454;SDS011;21057;51.024;7.540;2022-12-07T03:49:30;57.03;;;44.87;;
15454;SDS011;21057;51.024;7.540;2022-12-07T03:52:05;43.93;;;39.53;;
15454;SDS011;21057;51.024;7.540;2022-12-07T03:54:39;65.07;;;40.77;;
15454;SDS011;21057;51.024;7.540;2022-12-07T03:57:10;45.13;;;40.57;;
15454;SDS011;21057;51.024;7.540;2022-12-07T03:59:38;64.73;;;40.63;;
15454;SDS011;21057;51.024;7.540;2022-12-07T04:02:08;53.13;;;41.57;;
15454;SDS011;21057;51.024;7.540;2022-12-07T04:04:38;70.67;;;43.27;;
15454;SDS011;21057;51.024;7.540;2022-12-07T04:07:05;48.37;;;43.80;;
15454;SDS011;21057;51.024;7.540;2022-12-07T04:09:32;46.17;;;40.73;;
15454;SDS011;21057;51.024;7.540;2022-12-07T04:11:59;49.80;;;44.93;;
15454;SDS011;21057;51.024;7.540;2022-12-07T04:14:26;45.90;;;41.30;;
15454;SDS011;21057;51.024;7.540;2022-12-07T04:16:53;52.73;;;44.93;;
15454;SDS011;21057;51.024;7.540;2022-12-07T04:19:24;48.93;;;44.57;;
15454;SDS011;21057;51.024;7.540;2022-12-07T04:21:52;44.80;;;40.83;;
15454;SDS011;21057;51.024;7.540;2022-12-07T04:24:19;64.43;;;46.47;;
15454;SDS011;21057;51.024;7.540;2022-12-07T04:26:46;45.67;;;40.97;;
15454;SDS011;21057;51.024;7.540;2022-12-07T04:29:13;48.23;;;43.83;;
15454;SDS011;21057;51.024;7.540;2022-12-07T04:31:41;50.63;;;45.37;;
15454;SDS011;21057;51.024;7.540;2022-12-07T04:34:08;50.37;;;45.77;;
15454;SDS011;21057;51.024;7.540;2022-12-07T04:36:36;51.67;;;46.57;;
15454;SDS011;21057;51.024;7.540;2022-12-07T04:39:04;56.57;;;47.37;;
15454;SDS011;21057;51.024;7.540;2022-12-07T04:41:31;52.90;;;47.90;;
15454;SDS011;21057;51.024;7.540;2022-12-07T04:43:59;52.37;;;47.47;;
15454;SDS011;21057;51.024;7.540;2022-12-07T04:46:28;53.43;;;48.17;;
15454;SDS011;21057;51.024;7.540;2022-12-07T04:48:56;54.07;;;48.80;;
15454;SDS011;21057;51.024;7.540;2022-12-07T04:51:24;51.50;;;46.63;;
15454;SDS011;21057;51.024;7.540;2022-12-07T04:53:54;52.20;;;47.27;;
15454;SDS011;21057;51.024;7.540;2022-12-07T04:56:21;51.73;;;46.83;;
15454;SDS011;21057;51.024;7.540;2022-12-07T04:58:49;51.63;;;47.13;;
15454;SDS011;21057;51.024;7.540;2022-12-07T05:01:17;53.03;;;47.43;;
15454;SDS011;21057;51.024;7.540;2022-12-07T05:03:45;50.73;;;45.90;;
15454;SDS011;21057;51.024;7.540;2022-12-07T05:06:12;52.67;;;47.83;;
15454;SDS011;21057;51.024;7.540;2022-12-07T05:08:40;49.93;;;45.70;;
15454;SDS011;21057;51.024;7.540;2022-12-07T05:11:09;50.33;;;45.23;;
15454;SDS011;21057;51.024;7.540;2022-12-07T05:13:57;51.33;;;46.03;;
15454;SDS011;21057;51.024;7.540;2022-12-07T05:16:24;54.07;;;48.97;;
15454;SDS011;21057;51.024;7.540;2022-12-07T05:18:50;54.60;;;49.97;;
15454;SDS011;21057;51.024;7.540;2022-12-07T05:21:17;52.43;;;48.13;;
15454;SDS011;21057;51.024;7.540;2022-12-07T05:23:44;54.67;;;50.13;;
15454;SDS011;21057;51.024;7.540;2022-12-07T05:26:12;51.37;;;46.73;;
15454;SDS011;21057;51.024;7.540;2022-12-07T05:28:39;51.07;;;46.10;;
15454;SDS011;21057;51.024;7.540;2022-12-07T05:31:06;52.27;;;47.83;;
15454;SDS011;21057;51.024;7.540;2022-12-07T05:33:33;47.17;;;43.77;;
15454;SDS011;21057;51.024;7.540;2022-12-07T05:36:00;50.83;;;46.03;;
15454;SDS011;21057;51.024;7.540;2022-12-07T05:38:30;52.60;;;47.33;;
15454;SDS011;21057;51.024;7.540;2022-12-07T05:40:59;53.13;;;47.70;;
15454;SDS011;21057;51.024;7.540;2022-12-07T05:43:29;51.93;;;47.47;;
15454;SDS011;21057;51.024;7.540;2022-12-07T05:45:56;53.43;;;48.63;;
15454;SDS011;21057;51.024;7.540;2022-12-07T05:48:23;49.83;;;45.37;;
15454;SDS011;21057;51.024;7.540;2022-12-07T05:50:50;50.63;;;45.97;;
15454;SDS011;21057;51.024;7.540;2022-12-07T05:53:18;48.67;;;44.77;;
15454;SDS011;21057;51.024;7.540;2022-12-07T05:55:45;46.50;;;42.17;;
15454;SDS011;21057;51.024;7.540;2022-12-07T05:58:12;47.13;;;43.43;;
15454;SDS011;21057;51.024;7.540;2022-12-07T06:00:58;48.23;;;44.20;;
15454;SDS011;21057;51.024;7.540;2022-12-07T06:03:24;53.87;;;49.20;;
15454;SDS011;21057;51.024;7.540;2022-12-07T06:05:51;51.93;;;47.27;;
15454;SDS011;21057;51.024;7.540;2022-12-07T06:08:18;51.20;;;46.50;;
15454;SDS011;21057;51.024;7.540;2022-12-07T06:10:46;52.90;;;47.33;;
15454;SDS011;21057;51.024;7.540;2022-12-07T06:13:34;49.40;;;45.27;;
15454;SDS011;21057;51.024;7.540;2022-12-07T06:16:02;50.53;;;45.93;;
15454;SDS011;21057;51.024;7.540;2022-12-07T06:18:28;50.70;;;46.70;;
15454;SDS011;21057;51.024;7.540;2022-12-07T06:20:55;50.13;;;46.17;;
15454;SDS011;21057;51.024;7.540;2022-12-07T06:23:22;47.43;;;43.17;;
15454;SDS011;21057;51.024;7.540;2022-12-07T06:25:49;44.73;;;41.53;;
15454;SDS011;21057;51.024;7.540;2022-12-07T06:28:15;43.37;;;40.17;;
15454;SDS011;21057;51.024;7.540;2022-12-07T06:30:42;45.80;;;42.30;;
15454;SDS011;21057;51.024;7.540;2022-12-07T06:33:10;46.83;;;43.37;;
15454;SDS011;21057;51.024;7.540;2022-12-07T06:35:37;44.60;;;41.33;;
15454;SDS011;21057;51.024;7.540;2022-12-07T06:38:04;49.33;;;44.37;;
15454;SDS011;21057;51.024;7.540;2022-12-07T06:40:31;45.87;;;42.20;;
15454;SDS011;21057;51.024;7.540;2022-12-07T06:42:58;46.43;;;43.07;;
15454;SDS011;21057;51.024;7.540;2022-12-07T06:45:24;47.60;;;44.20;;
15454;SDS011;21057;51.024;7.540;2022-12-07T06:47:51;48.77;;;44.47;;
15454;SDS011;21057;51.024;7.540;2022-12-07T06:50:19;47.60;;;43.10;;
15454;SDS011;21057;51.024;7.540;2022-12-07T06:52:46;44.60;;;41.03;;
15454;SDS011;21057;51.024;7.540;2022-12-07T06:55:13;46.47;;;42.33;;
15454;SDS011;21057;51.024;7.540;2022-12-07T06:57:40;48.43;;;44.20;;
15454;SDS011;21057;51.024;7.540;2022-12-07T07:00:07;48.50;;;44.73;;
15454;SDS011;21057;51.024;7.540;2022-12-07T07:02:34;47.33;;;42.83;;
15454;SDS011;21057;51.024;7.540;2022-12-07T07:05:01;48.20;;;44.23;;
15454;SDS011;21057;51.024;7.540;2022-12-07T07:07:29;51.17;;;47.20;;
15454;SDS011;21057;51.024;7.540;2022-12-07T07:09:56;48.80;;;44.77;;
15454;SDS011;21057;51.024;7.540;2022-12-07T07:12:23;47.97;;;44.17;;
15454;SDS011;21057;51.024;7.540;2022-12-07T07:14:50;47.97;;;44.23;;
15454;SDS011;21057;51.024;7.540;2022-12-07T07:17:17;46.70;;;43.07;;
15454;SDS011;21057;51.024;7.540;2022-12-07T07:19:43;45.47;;;41.60;;
15454;SDS011;21057;51.024;7.540;2022-12-07T07:22:10;48.77;;;44.67;;
15454;SDS011;21057;51.024;7.540;2022-12-07T07:24:38;43.77;;;40.57;;
15454;SDS011;21057;51.024;7.540;2022-12-07T07:27:05;46.57;;;42.97;;
15454;SDS011;21057;51.024;7.540;2022-12-07T07:29:32;44.37;;;41.03;;
15454;SDS011;21057;51.024;7.540;2022-12-07T07:31:59;47.17;;;43.47;;
15454;SDS011;21057;51.024;7.540;2022-12-07T07:34:26;50.10;;;46.30;;
15454;SDS011;21057;51.024;7.540;2022-12-07T07:36:53;49.10;;;45.77;;
15454;SDS011;21057;51.024;7.540;2022-12-07T07:39:20;48.80;;;44.93;;
15454;SDS011;21057;51.024;7.540;2022-12-07T07:41:48;48.40;;;44.97;;
15454;SDS011;21057;51.024;7.540;2022-12-07T07:44:15;46.50;;;43.40;;
15454;SDS011;21057;51.024;7.540;2022-12-07T07:46:42;50.47;;;46.53;;
15454;SDS011;21057;51.024;7.540;2022-12-07T07:49:09;48.70;;;45.13;;
15454;SDS011;21057;51.024;7.540;2022-12-07T07:51:36;44.50;;;41.80;;
15454;SDS011;21057;51.024;7.540;2022-12-07T07:54:03;44.37;;;41.03;;
15454;SDS011;21057;51.024;7.540;2022-12-07T07:56:30;44.20;;;40.83;;
15454;SDS011;21057;51.024;7.540;2022-12-07T07:58:58;43.60;;;40.50;;
15454;SDS011;21057;51.024;7.540;2022-12-07T08:01:25;47.90;;;44.23;;
15454;SDS011;21057;51.024;7.540;2022-12-07T08:03:52;48.47;;;44.60;;
15454;SDS011;21057;51.024;7.540;2022-12-07T08:06:18;44.50;;;41.20;;
15454;SDS011;21057;51.024;7.540;2022-12-07T08:08:45;44.17;;;41.07;;
15454;SDS011;21057;51.024;7.540;2022-12-07T08:11:12;49.47;;;45.10;;
15454;SDS011;21057;51.024;7.540;2022-12-07T08:13:39;42.73;;;39.43;;
15454;SDS011;21057;51.024;7.540;2022-12-07T08:16:08;45.73;;;42.13;;
15454;SDS011;21057;51.024;7.540;2022-12-07T08:18:36;46.03;;;41.50;;
15454;SDS011;21057;51.024;7.540;2022-12-07T08:21:04;47.77;;;44.13;;
15454;SDS011;21057;51.024;7.540;2022-12-07T08:23:31;42.37;;;39.43;;
15454;SDS011;21057;51.024;7.540;2022-12-07T08:25:59;45.67;;;42.37;;
15454;SDS011;21057;51.024;7.540;2022-12-07T08:28:26;44.27;;;41.10;;
15454;SDS011;21057;51.024;7.540;2022-12-07T08:30:58;44.00;;;40.77;;
15454;SDS011;21057;51.024;7.540;2022-12-07T08:33:27;45.53;;;42.13;;
15454;SDS011;21057;51.024;7.540;2022-12-07T08:35:54;44.30;;;41.13;;
15454;SDS011;21057;51.024;7.540;2022-12-07T08:38:20;44.27;;;41.00;;
15454;SDS011;21057;51.024;7.540;2022-12-07T08:40:53;43.17;;;39.97;;
15454;SDS011;21057;51.024;7.540;2022-12-07T08:43:20;43.73;;;40.57;;
15454;SDS011;21057;51.024;7.540;2022-12-07T08:45:47;48.20;;;43.97;;
15454;SDS011;21057;51.024;7.540;2022-12-07T08:48:17;47.10;;;43.60;;
15454;SDS011;21057;51.024;7.540;2022-12-07T08:50:48;42.90;;;39.63;;
15454;SDS011;21057;51.024;7.540;2022-12-07T08:53:15;41.57;;;38.67;;
15454;SDS011;21057;51.024;7.540;2022-12-07T08:55:42;41.03;;;38.00;;
15454;SDS011;21057;51.024;7.540;2022-12-07T08:58:10;39.63;;;36.73;;
15454;SDS011;21057;51.024;7.540;2022-12-07T09:00:37;41.20;;;38.03;;
15454;SDS011;21057;51.024;7.540;2022-12-07T09:03:04;37.40;;;34.60;;
15454;SDS011;21057;51.024;7.540;2022-12-07T09:05:31;40.87;;;37.33;;
15454;SDS011;21057;51.024;7.540;2022-12-07T09:08:01;39.50;;;36.83;;
15454;SDS011;21057;51.024;7.540;2022-12-07T09:10:28;43.97;;;40.73;;
15454;SDS011;21057;51.024;7.540;2022-12-07T09:12:55;42.37;;;39.37;;
15454;SDS011;21057;51.024;7.540;2022-12-07T09:15:25;42.70;;;39.70;;
15454;SDS011;21057;51.024;7.540;2022-12-07T09:17:52;43.57;;;40.07;;
15454;SDS011;21057;51.024;7.540;2022-12-07T09:20:19;42.33;;;39.33;;
15454;SDS011;21057;51.024;7.540;2022-12-07T09:22:46;43.87;;;40.30;;
15454;SDS011;21057;51.024;7.540;2022-12-07T09:25:14;48.23;;;44.37;;
15454;SDS011;21057;51.024;7.540;2022-12-07T09:27:41;45.37;;;42.10;;
15454;SDS011;21057;51.024;7.540;2022-12-07T09:30:08;44.97;;;41.17;;
15454;SDS011;21057;51.024;7.540;2022-12-07T09:32:35;40.73;;;37.83;;
15454;SDS011;21057;51.024;7.540;2022-12-07T09:35:02;46.03;;;42.20;;
15454;SDS011;21057;51.024;7.540;2022-12-07T09:37:31;45.73;;;41.60;;
15454;SDS011;21057;51.024;7.540;2022-12-07T09:40:01;45.90;;;41.70;;
15454;SDS011;21057;51.024;7.540;2022-12-07T09:42:31;45.23;;;41.63;;
15454;SDS011;21057;51.024;7.540;2022-12-07T09:45:00;44.90;;;41.53;;
15454;SDS011;21057;51.024;7.540;2022-12-07T09:47:28;44.33;;;40.90;;
15454;SDS011;21057;51.024;7.540;2022-12-07T09:49:58;46.50;;;42.93;;
15454;SDS011;21057;51.024;7.540;2022-12-07T09:52:30;46.33;;;42.30;;
15454;SDS011;21057;51.024;7.540;2022-12-07T09:54:57;51.03;;;46.63;;
15454;SDS011;21057;51.024;7.540;2022-12-07T09:57:26;48.20;;;43.67;;
15454;SDS011;21057;51.024;7.540;2022-12-07T09:59:57;44.27;;;41.10;;
15454;SDS011;21057;51.024;7.540;2022-12-07T10:02:33;47.77;;;43.70;;
15454;SDS011;21057;51.024;7.540;2022-12-07T10:05:03;47.77;;;44.23;;
15454;SDS011;21057;51.024;7.540;2022-12-07T10:07:31;50.00;;;46.13;;
15454;SDS011;21057;51.024;7.540;2022-12-07T10:09:58;45.90;;;41.33;;
15454;SDS011;21057;51.024;7.540;2022-12-07T10:12:25;45.70;;;42.23;;
15454;SDS011;21057;51.024;7.540;2022-12-07T10:14:55;44.80;;;40.97;;
15454;SDS011;21057;51.024;7.540;2022-12-07T10:17:32;45.97;;;41.63;;
15454;SDS011;21057;51.024;7.540;2022-12-07T10:20:14;45.10;;;41.37;;
15454;SDS011;21057;51.024;7.540;2022-12-07T10:23:00;46.10;;;41.60;;
15454;SDS011;21057;51.024;7.540;2022-12-07T10:25:29;45.07;;;41.77;;
15454;SDS011;21057;51.024;7.540;2022-12-07T10:28:02;43.63;;;40.00;;
15454;SDS011;21057;51.024;7.540;2022-12-07T10:30:47;42.30;;;39.40;;
15454;SDS011;21057;51.024;7.540;2022-12-07T10:33:28;46.27;;;42.30;;
15454;SDS011;21057;51.024;7.540;2022-12-07T10:35:56;46.23;;;42.57;;
15454;SDS011;21057;51.024;7.540;2022-12-07T10:38:24;46.23;;;42.10;;
15454;SDS011;21057;51.024;7.540;2022-12-07T10:41:02;46.30;;;42.87;;
15454;SDS011;21057;51.024;7.540;2022-12-07T10:43:30;42.60;;;39.30;;
15454;SDS011;21057;51.024;7.540;2022-12-07T10:48:59;42.67;;;38.93;;
15454;SDS011;21057;51.024;7.540;2022-12-07T10:51:35;40.33;;;37.50;;
15454;SDS011;21057;51.024;7.540;2022-12-07T10:54:10;42.23;;;39.30;;
15454;SDS011;21057;51.024;7.540;2022-12-07T10:56:50;42.27;;;39.30;;
15454;SDS011;21057;51.024;7.540;2022-12-07T10:59:40;40.80;;;37.83;;
15454;SDS011;21057;51.024;7.540;2022-12-07T11:02:23;42.90;;;39.50;;
15454;SDS011;21057;51.024;7.540;2022-12-07T11:05:00;42.33;;;38.97;;
15454;SDS011;21057;51.024;7.540;2022-12-07T11:07:38;41.60;;;38.80;;
15454;SDS011;21057;51.024;7.540;2022-12-07T11:10:13;40.83;;;38.03;;
15454;SDS011;21057;51.024;7.540;2022-12-07T11:12:51;38.30;;;34.73;;
15454;SDS011;21057;51.024;7.540;2022-12-07T11:15:29;38.20;;;35.80;;
15454;SDS011;21057;51.024;7.540;2022-12-07T11:18:10;41.07;;;37.37;;
15454;SDS011;21057;51.024;7.540;2022-12-07T11:20:42;44.40;;;41.07;;
15454;SDS011;21057;51.024;7.540;2022-12-07T11:23:18;39.70;;;36.03;;
15454;SDS011;21057;51.024;7.540;2022-12-07T11:25:53;40.97;;;37.27;;
15454;SDS011;21057;51.024;7.540;2022-12-07T11:28:31;43.40;;;35.37;;
15454;SDS011;21057;51.024;7.540;2022-12-07T11:31:08;38.37;;;35.23;;
15454;SDS011;21057;51.024;7.540;2022-12-07T11:33:45;40.70;;;37.20;;
15454;SDS011;21057;51.024;7.540;2022-12-07T11:36:29;41.33;;;38.10;;
15454;SDS011;21057;51.024;7.540;2022-12-07T11:39:02;41.60;;;38.17;;
15454;SDS011;21057;51.024;7.540;2022-12-07T11:41:34;41.03;;;38.07;;
15454;SDS011;21057;51.024;7.540;2022-12-07T11:44:05;39.63;;;36.03;;
15454;SDS011;21057;51.024;7.540;2022-12-07T11:46:39;41.13;;;37.93;;
15454;SDS011;21057;51.024;7.540;2022-12-07T11:49:15;36.43;;;33.60;;
15454;SDS011;21057;51.024;7.540;2022-12-07T11:51:47;39.37;;;36.17;;
15454;SDS011;21057;51.024;7.540;2022-12-07T11:54:19;40.60;;;37.47;;
15454;SDS011;21057;51.024;7.540;2022-12-07T11:56:51;41.33;;;37.90;;
15454;SDS011;21057;51.024;7.540;2022-12-07T11:59:23;39.83;;;36.63;;
15454;SDS011;21057;51.024;7.540;2022-12-07T12:01:56;40.90;;;37.53;;
15454;SDS011;21057;51.024;7.540;2022-12-07T12:04:32;43.27;;;39.80;;
15454;SDS011;21057;51.024;7.540;2022-12-07T12:07:06;39.00;;;36.00;;
15454;SDS011;21057;51.024;7.540;2022-12-07T12:09:34;39.50;;;36.30;;
15454;SDS011;21057;51.024;7.540;2022-12-07T12:12:16;39.07;;;35.83;;
15454;SDS011;21057;51.024;7.540;2022-12-07T12:14:58;42.90;;;38.97;;
15454;SDS011;21057;51.024;7.540;2022-12-07T12:17:56;40.53;;;37.37;;
15454;SDS011;21057;51.024;7.540;2022-12-07T12:20:35;42.73;;;38.87;;
15454;SDS011;21057;51.024;7.540;2022-12-07T12:23:09;38.73;;;36.03;;
15454;SDS011;21057;51.024;7.540;2022-12-07T12:25:39;38.67;;;35.67;;
15454;SDS011;21057;51.024;7.540;2022-12-07T12:28:17;40.23;;;37.43;;
15454;SDS011;21057;51.024;7.540;2022-12-07T12:30:51;39.23;;;36.43;;
15454;SDS011;21057;51.024;7.540;2022-12-07T12:33:31;40.50;;;37.20;;
15454;SDS011;21057;51.024;7.540;2022-12-07T12:38:52;41.07;;;37.40;;
15454;SDS011;21057;51.024;7.540;2022-12-07T12:47:41;38.40;;;35.13;;
15454;SDS011;21057;51.024;7.540;2022-12-07T12:50:15;38.83;;;36.00;;
15454;SDS011;21057;51.024;7.540;2022-12-07T12:53:01;39.10;;;36.40;;
15454;SDS011;21057;51.024;7.540;2022-12-07T12:58:41;36.03;;;33.37;;
15454;SDS011;21057;51.024;7.540;2022-12-07T13:04:22;36.50;;;34.10;;
15454;SDS011;21057;51.024;7.540;2022-12-07T13:07:12;39.27;;;36.07;;
15454;SDS011;21057;51.024;7.540;2022-12-07T13:10:00;38.60;;;35.73;;
15454;SDS011;21057;51.024;7.540;2022-12-07T13:12:28;40.03;;;37.20;;
15454;SDS011;21057;51.024;7.540;2022-12-07T13:14:56;39.73;;;36.77;;
15454;SDS011;21057;51.024;7.540;2022-12-07T13:20:40;40.73;;;37.63;;
15454;SDS011;21057;51.024;7.540;2022-12-07T13:23:22;41.40;;;38.50;;
15454;SDS011;21057;51.024;7.540;2022-12-07T13:26:01;40.73;;;37.77;;
15454;SDS011;21057;51.024;7.540;2022-12-07T13:28:47;41.30;;;38.03;;
15454;SDS011;21057;51.024;7.540;2022-12-07T13:34:00;40.27;;;37.37;;
15454;SDS011;21057;51.024;7.540;2022-12-07T13:36:29;39.23;;;36.67;;
15454;SDS011;21057;51.024;7.540;2022-12-07T13:39:09;36.90;;;34.40;;
15454;SDS011;21057;51.024;7.540;2022-12-07T13:41:44;37.83;;;35.00;;
15454;SDS011;21057;51.024;7.540;2022-12-07T13:44:16;40.97;;;37.23;;
15454;SDS011;21057;51.024;7.540;2022-12-07T13:46:45;36.50;;;33.97;;
15454;SDS011;21057;51.024;7.540;2022-12-07T13:49:18;37.23;;;34.57;;
15454;SDS011;21057;51.024;7.540;2022-12-07T13:51:48;38.53;;;35.57;;
15454;SDS011;21057;51.024;7.540;2022-12-07T13:54:15;38.13;;;35.73;;
15454;SDS011;21057;51.024;7.540;2022-12-07T13:56:46;39.33;;;36.63;;
15454;SDS011;21057;51.024;7.540;2022-12-07T13:59:16;37.37;;;34.97;;
15454;SDS011;21057;51.024;7.540;2022-12-07T14:01:45;37.97;;;35.50;;
15454;SDS011;21057;51.024;7.540;2022-12-07T14:09:53;41.00;;;37.93;;
15454;SDS011;21057;51.024;7.540;2022-12-07T14:12:23;39.13;;;35.53;;
15454;SDS011;21057;51.024;7.540;2022-12-07T14:14:50;38.37;;;35.70;;
15454;SDS011;21057;51.024;7.540;2022-12-07T14:17:19;40.43;;;37.83;;
15454;SDS011;21057;51.024;7.540;2022-12-07T14:19:49;40.43;;;37.40;;
15454;SDS011;21057;51.024;7.540;2022-12-07T14:22:19;40.73;;;37.83;;
15454;SDS011;21057;51.024;7.540;2022-12-07T14:24:49;39.70;;;37.10;;
15454;SDS011;21057;51.024;7.540;2022-12-07T14:27:19;40.40;;;37.80;;
15454;SDS011;21057;51.024;7.540;2022-12-07T14:29:48;41.77;;;38.13;;
15454;SDS011;21057;51.024;7.540;2022-12-07T14:32:19;40.27;;;37.33;;
15454;SDS011;21057;51.024;7.540;2022-12-07T14:34:55;42.50;;;39.73;;
15454;SDS011;21057;51.024;7.540;2022-12-07T14:37:24;42.63;;;39.10;;
15454;SDS011;21057;51.024;7.540;2022-12-07T14:39:51;41.90;;;39.20;;
15454;SDS011;21057;51.024;7.540;2022-12-07T14:42:18;40.23;;;37.60;;
15454;SDS011;21057;51.024;7.540;2022-12-07T14:44:46;42.00;;;39.00;;
15454;SDS011;21057;51.024;7.540;2022-12-07T14:47:14;42.03;;;38.27;;
15454;SDS011;21057;51.024;7.540;2022-12-07T14:49:41;40.53;;;37.53;;
15454;SDS011;21057;51.024;7.540;2022-12-07T14:52:09;37.83;;;35.33;;
15454;SDS011;21057;51.024;7.540;2022-12-07T14:54:41;40.50;;;36.83;;
15454;SDS011;21057;51.024;7.540;2022-12-07T14:57:08;36.97;;;34.60;;
15454;SDS011;21057;51.024;7.540;2022-12-07T14:59:35;39.47;;;37.00;;
15454;SDS011;21057;51.024;7.540;2022-12-07T15:02:02;37.37;;;35.07;;
15454;SDS011;21057;51.024;7.540;2022-12-07T15:04:30;38.57;;;36.07;;
15454;SDS011;21057;51.024;7.540;2022-12-07T15:06:57;39.07;;;36.40;;
15454;SDS011;21057;51.024;7.540;2022-12-07T15:09:25;36.80;;;34.60;;
15454;SDS011;21057;51.024;7.540;2022-12-07T15:11:52;38.33;;;36.03;;
15454;SDS011;21057;51.024;7.540;2022-12-07T15:14:19;41.50;;;38.77;;